Dallas, Texas
Traffic Map
Current Weather Conditions
Dallas, Texas
Overcast
Overcast
85°
Feels Like: 92°
Wind Chill: 85° Ceiling: 2900
Heat Index: 92° Visibility: 7mi
Dew Point: 73° Wind: 9mph
Humidity: 67% Direction: 190° (S)
Pressure: 29.96in Gusts: 0mph
Raw Report DataKDAL 251853Z 19008KT 7SM BKN029 OVC038 29/23 A2996 RMK AO2 SLP138 T02940228 $
Traffic Incident Summary
Active as of:
Severity:
Category:
InformationThere was an issue retrieving the traffic information for this location. Please try a different location or try again shortly.
Advertisements
Track Severe Weather on mobile